createdAt,value
2018-07-22T05:43:48.285Z,87.82
2018-07-22T05:45:01.882Z,85.56
2018-07-22T05:45:31.228Z,85.56
2018-07-22T05:45:48.746Z,85.53
2018-07-22T05:47:25.355Z,85.72
2018-07-22T05:51:31.251Z,87.52
2018-07-22T05:51:58.066Z,86.81
2018-07-22T05:52:16.938Z,86.81
2018-07-22T05:52:55.291Z,87.12
2018-07-22T05:53:08.179Z,87.12
2018-07-22T05:54:16.992Z,87.69
2018-07-22T05:54:29.452Z,87.69
2018-07-22T05:54:53.266Z,87.69
2018-07-22T06:00:02.075Z,87.33
2018-07-22T06:15:01.381Z,87.83
2018-07-22T06:30:01.670Z,84.64
2018-07-22T06:32:36.345Z,83.47
2018-07-22T06:32:45.485Z,83.47
2018-07-22T06:33:49.078Z,84
2018-07-22T06:40:01.939Z,82.6
2018-07-22T06:45:01.214Z,84.25
2018-07-22T06:50:01.631Z,82.2
2018-07-22T06:55:01.940Z,82.31
2018-07-22T07:00:01.210Z,80.35
2018-07-22T07:05:01.670Z,79.5
2018-07-22T07:10:02.141Z,76.64
2018-07-22T07:15:01.430Z,76.21
2018-07-22T07:20:01.780Z,75.89
2018-07-22T07:25:02.141Z,74.76
2018-07-22T07:30:01.376Z,78.58
2018-07-22T07:35:01.709Z,76.92
2018-07-22T07:40:01.972Z,75.88
2018-07-22T07:45:01.236Z,76.77
2018-07-22T07:50:01.469Z,75.26
2018-07-22T07:55:01.727Z,74.81
2018-07-22T08:00:01.967Z,73.85
2018-07-22T08:05:01.257Z,73.47
2018-07-22T08:10:01.517Z,72.6
2018-07-22T08:15:01.762Z,72.47
2018-07-22T08:20:02.084Z,71.34
2018-07-22T08:25:01.327Z,72.18
2018-07-22T08:30:01.561Z,69.9
2018-07-22T08:35:01.806Z,69.83
2018-07-22T08:40:02.186Z,70.86
2018-07-22T08:45:01.428Z,70.47
2018-07-22T08:50:01.701Z,72.65
2018-07-22T08:55:01.945Z,70.04
2018-07-22T09:00:01.212Z,67.04
2018-07-22T09:05:01.485Z,69.24
2018-07-22T09:10:01.773Z,69.54
2018-07-22T09:15:02.031Z,67.46
2018-07-22T09:20:01.266Z,68.66
2018-07-22T09:25:01.552Z,66.04
2018-07-22T09:30:01.895Z,65.93
2018-07-22T09:35:01.197Z,65.42
2018-07-22T09:40:01.468Z,65.74
2018-07-22T09:45:01.730Z,64.51
2018-07-22T09:50:01.956Z,62.7
2018-07-22T09:55:01.218Z,61.33
2018-07-22T10:00:01.446Z,62.65
2018-07-22T10:05:01.770Z,61.62
2018-07-22T10:10:02.036Z,62.3
2018-07-22T10:15:01.285Z,59.63
2018-07-22T10:20:01.569Z,61.01
2018-07-22T10:25:01.908Z,59.74
2018-07-22T10:30:01.169Z,60.32
2018-07-22T10:35:01.433Z,58.93
2018-07-22T10:40:01.717Z,59.77
2018-07-22T10:45:01.993Z,59.28
2018-07-22T10:50:01.260Z,59.3
2018-07-22T10:55:01.542Z,60.23
2018-07-22T11:00:01.808Z,55.68
2018-07-22T11:05:02.085Z,54.96
2018-07-22T11:10:01.598Z,55.59
2018-07-22T11:15:01.863Z,53.86
2018-07-22T11:20:02.111Z,53.73
2018-07-22T11:25:01.364Z,52.6
2018-07-22T11:30:01.622Z,55.31
2018-07-22T11:35:01.877Z,53.67
2018-07-22T11:40:02.148Z,54.33
2018-07-22T11:45:01.393Z,53.51
2018-07-22T11:50:01.680Z,52.5
2018-07-22T11:55:01.923Z,53.15
2018-07-22T12:00:01.249Z,53.06
2018-07-22T12:05:01.563Z,54.14
2018-07-22T12:10:01.834Z,52.11
2018-07-22T12:15:02.090Z,51.93
2018-07-22T12:20:01.339Z,51.35
2018-07-22T12:25:01.635Z,53.49
2018-07-22T12:30:01.884Z,49.78
2018-07-22T12:35:01.166Z,50.8
2018-07-22T12:40:01.407Z,50.18
2018-07-22T12:45:01.707Z,48.64
2018-07-22T12:50:01.996Z,49.51
2018-07-22T12:55:01.258Z,49.69
2018-07-22T13:00:01.496Z,48.37
2018-07-22T13:05:01.829Z,48.22
2018-07-22T13:10:02.123Z,47.05
2018-07-22T13:15:01.378Z,47.68
2018-07-22T13:20:01.718Z,49.69
2018-07-22T13:26:05.331Z,46.56
2018-07-22T13:30:01.756Z,46.56
2018-07-22T13:40:01.340Z,47.34
2018-07-22T13:45:01.725Z,47.08
2018-07-22T13:50:02.052Z,48.53
2018-07-22T13:55:01.309Z,50.39
2018-07-22T14:00:01.618Z,48.58
2018-07-22T14:05:01.228Z,47.65
2018-07-22T14:10:01.487Z,48.88
2018-07-22T14:15:01.728Z,49.29
2018-07-22T14:20:01.981Z,47.75
2018-07-22T14:25:01.395Z,46.4
2018-07-22T14:30:01.860Z,50
2018-07-22T14:35:01.312Z,47.55
2018-07-22T14:40:11.490Z,47.5
2018-07-22T14:50:08.077Z,46.82
2018-07-22T14:55:06.482Z,48.26
2018-07-22T15:00:05.818Z,45.41
2018-07-22T15:05:03.038Z,44.94
2018-07-22T15:10:03.118Z,46.07
2018-07-22T15:15:03.245Z,43.74
2018-07-22T15:20:04.416Z,47.1
2018-07-22T15:25:04.110Z,44.66
2018-07-22T15:30:03.397Z,45.72
2018-07-22T15:35:05.701Z,47.28
2018-07-22T15:40:04.826Z,44.24
2018-07-22T15:45:03.468Z,47.24
2018-07-22T15:50:03.933Z,46.02
2018-07-22T15:55:03.149Z,44.45
2018-07-22T20:40:01.853Z,70.92
2018-07-22T20:45:02.138Z,71.5
2018-07-22T20:50:01.495Z,72.82
2018-07-22T20:55:01.761Z,73.23
2018-07-22T21:00:02.013Z,73.64
2018-07-22T21:05:01.251Z,74.91
2018-07-22T21:10:01.483Z,76.03
2018-07-22T21:15:01.959Z,77.03
2018-07-22T21:20:01.347Z,77.09
2018-07-22T21:25:01.608Z,77.3
2018-07-22T21:30:01.937Z,76.97
2018-07-22T21:35:01.217Z,76.87
2018-07-22T21:40:01.459Z,77.68
2018-07-22T21:45:01.924Z,77.84
2018-07-22T21:50:01.263Z,78
2018-07-22T21:55:01.524Z,76.68
2018-07-22T22:00:01.782Z,76.36
2018-07-22T22:05:02.250Z,76.81
2018-07-22T22:10:01.857Z,77.87
2018-07-22T22:15:01.282Z,78.42
2018-07-22T22:20:01.553Z,78.87
2018-07-22T22:25:01.958Z,78.67
2018-07-22T22:30:01.268Z,78.71
2018-07-22T22:35:01.610Z,79.38
2018-07-22T22:40:01.851Z,78.9
2018-07-22T22:45:01.154Z,79.38
2018-07-22T22:50:01.419Z,79.58
2018-07-22T22:55:01.755Z,80.39
2018-07-22T23:00:02.009Z,80.53
2018-07-22T23:05:01.258Z,80.31
2018-07-22T23:10:02.421Z,82.2
2018-07-22T23:15:02.625Z,80.85
2018-07-22T23:20:05.720Z,80.18
2018-07-22T23:25:03.733Z,80.96
2018-07-22T23:30:02.846Z,82.12
2018-07-22T23:35:05.947Z,82.29
2018-07-22T23:40:02.670Z,82.28
2018-07-22T23:45:02.835Z,83.15
2018-07-22T23:50:05.893Z,82.41
2018-07-22T23:55:02.657Z,82.62
